首页
METAR-TAF:

METAR-TAF

机场 :

Chisholm-Hibbing Airport

Hibbing, 明尼蘇達州, 美国

纬度: 47-23-12N, 经度: 092-50-20W, 海拔: 412米

当前天气观测

该预报发布于40分钟前的04:53 UTC
风速7节,风向西南,有时为19节阵风
温度 6°C
湿度 81%
气压 1001 hPa
能見度: 16.1公里
多云层高于2100英尺
阴天层高于2600英尺

METAR: KHIB 250453Z AUTO 22007G19KT 10SM BKN021 OVC026 06/03 A2955 RMK AO2 SLP016 T00560033

时间: 00:33 (05:33 UTC)

预报

该预报发布于5小时和55分钟前的23:38 UTC
预报有效从25日的 00点(UTC)到 25日的 24点(UTC)
风速10节,风向东转东南,有时为19节阵风
能見度: 10公里
多云层高于2600英尺
多云层高于5000英尺
附近有阵雨
短暂存在
从 25日的 00点(UTC)到 25日的 01点(UTC)
散云层高于2600英尺
多云层高于5000英尺
从 25日的 0300点(UTC)
风速11节,风向西南,有时为20节阵风
能見度: 10公里
阴天层高于1400英尺
从 25日的 1500点(UTC)
风速13节,风向西转西南,有时为21节阵风
能見度: 10公里
散云层高于1800英尺
从 25日的 1700点(UTC)
风速13节,风向西转西南,有时为20节阵风
能見度: 10公里
散云层高于5000英尺

TAF: KHIB 242338Z 2500/2524 12010G19KT P6SM VCSH BKN026 BKN050 TEMPO 2500/2501 SCT026 BKN050 FM250300 23011G20KT P6SM OVC014 FM251500 25013G21KT P6SM SCT018 FM251700 25013G20KT P6SM SCT050

超过4000个机场的气象观测和天气预报(METAR&TAF报告)。

可查询的气象台以黄色和红色小点在地图上表示。

将鼠标移到小点上方,可查看气象台名称。

然后点击查看天气观测和预报。

如需切换地图:点击带黑十字的绿色按钮放大地图;点击带横线的绿色按钮缩小地图;或者点击绿色箭头查看邻近地区的地图。


METAR-TAF: